createdAt,value
2023-05-09T07:39:50.509Z,79.34
2023-05-09T07:42:18.118Z,78.96
2023-05-09T07:44:45.817Z,78.32
2023-05-09T07:47:12.749Z,78.49
2023-05-09T07:49:40.897Z,79.14
2023-05-09T07:52:07.845Z,78.29
2023-05-09T07:54:34.847Z,78.09
2023-05-09T07:57:01.781Z,77.46
2023-05-09T07:59:28.688Z,77.09
2023-05-09T08:01:55.964Z,76.12
2023-05-09T08:04:23.099Z,75.76
2023-05-09T08:06:50.161Z,76.61
2023-05-09T08:09:17.325Z,76.35
2023-05-09T08:11:45.341Z,74.93
2023-05-09T08:14:12.807Z,75.69
2023-05-09T08:16:40.714Z,75.99
2023-05-09T08:19:07.620Z,75.13
2023-05-09T08:21:36.232Z,74.60
2023-05-09T08:24:03.253Z,74.70
2023-05-09T08:26:30.240Z,75.05
2023-05-09T08:28:57.321Z,74.20
2023-05-09T08:31:24.329Z,73.87
2023-05-09T08:33:51.265Z,72.37
2023-05-09T08:36:18.191Z,72.07
2023-05-09T08:38:45.164Z,71.99
2023-05-09T08:41:12.120Z,70.88
2023-05-09T08:43:41.100Z,70.99
2023-05-09T08:46:10.853Z,71.87
2023-05-09T08:48:39.099Z,72.38
2023-05-09T08:51:07.138Z,73.89
2023-05-09T08:53:34.934Z,74.09
2023-05-09T08:56:04.254Z,74.68
2023-05-09T08:58:32.258Z,73.88
2023-05-09T09:00:59.814Z,74.09
2023-05-09T09:03:27.406Z,73.99
2023-05-09T09:05:55.232Z,74.38
2023-05-09T09:08:23.429Z,73.19
2023-05-09T09:10:50.624Z,75.12
2023-05-09T09:13:18.478Z,75.61
2023-05-09T09:15:47.238Z,75.57
2023-05-09T09:18:22.702Z,75.70
2023-05-09T09:20:58.405Z,74.40
2023-05-09T09:23:27.375Z,75.38
2023-05-09T09:26:13.715Z,75.96
2023-05-09T09:28:40.981Z,76.25
2023-05-09T09:31:25.329Z,75.49
2023-05-09T09:33:52.483Z,75.62
2023-05-09T09:36:36.905Z,75.73
2023-05-09T09:39:05.723Z,75.90
2023-05-09T09:41:37.848Z,75.97
2023-05-09T09:44:09.644Z,75.54
2023-05-09T09:46:51.862Z,76.02
2023-05-09T09:49:23.995Z,76.07
2023-05-09T09:51:52.778Z,75.28
2023-05-09T09:54:20.058Z,75.65
2023-05-09T09:56:49.365Z,76.20
2023-05-09T09:59:16.346Z,75.95
2023-05-09T10:02:07.036Z,76.17
2023-05-09T10:04:37.212Z,76.13
2023-05-09T10:07:06.703Z,77.02
2023-05-09T10:09:36.077Z,75.72
2023-05-09T10:12:07.637Z,75.05
2023-05-09T10:14:36.845Z,74.01
2023-05-09T10:17:05.525Z,73.66
2023-05-09T10:19:33.439Z,72.88
2023-05-09T10:22:06.288Z,73.17
2023-05-09T10:24:37.829Z,71.95
2023-05-09T10:27:09.854Z,71.16
2023-05-09T10:29:41.675Z,72.92
2023-05-09T10:32:32.450Z,74.05
2023-05-09T10:35:05.401Z,74.98
2023-05-09T10:37:33.423Z,75.09
2023-05-09T10:40:03.119Z,73.70
2023-05-09T10:42:30.820Z,73.23
2023-05-09T10:44:58.432Z,72.36
2023-05-09T10:47:29.943Z,71.58
2023-05-09T10:49:58.196Z,71.42
2023-05-09T10:52:25.106Z,72.40
2023-05-09T10:55:04.060Z,72.93
2023-05-09T10:57:32.775Z,70.64
2023-05-09T11:00:00.740Z,69.38
2023-05-09T11:02:32.696Z,68.77
2023-05-09T11:05:20.408Z,67.93
2023-05-09T11:07:47.369Z,67.49
2023-05-09T11:10:18.493Z,67.78
2023-05-09T11:12:59.476Z,66.87
2023-05-09T11:15:30.245Z,66.20
2023-05-09T11:18:09.912Z,64.97
2023-05-09T11:20:43.786Z,67.44
2023-05-09T11:23:12.094Z,66.71
2023-05-09T11:25:42.540Z,68.00
2023-05-09T11:28:10.148Z,66.44
2023-05-09T11:30:44.040Z,68.07
2023-05-09T11:33:24.348Z,67.59
2023-05-09T11:36:19.368Z,66.21
2023-05-09T11:38:49.214Z,68.31
2023-05-09T11:41:16.353Z,69.17
2023-05-09T11:43:45.064Z,67.70
2023-05-09T11:46:13.079Z,67.93
2023-05-09T11:48:42.486Z,67.97
2023-05-09T11:51:18.375Z,68.10
2023-05-09T11:53:47.256Z,67.96
2023-05-09T11:56:15.722Z,68.88
2023-05-09T11:58:44.653Z,67.89
2023-05-09T12:01:13.100Z,68.74
2023-05-09T12:03:45.509Z,68.43
2023-05-09T12:06:20.136Z,67.72
2023-05-09T12:08:47.412Z,68.14
2023-05-09T12:11:15.381Z,67.93
2023-05-09T12:13:49.451Z,69.09
2023-05-09T12:16:17.884Z,69.62
2023-05-09T12:18:49.062Z,70.29
2023-05-09T12:21:17.543Z,70.85
2023-05-09T12:23:45.290Z,71.07
2023-05-09T12:26:12.635Z,72.01
2023-05-09T12:28:40.093Z,72.59
2023-05-09T12:31:08.096Z,73.17
2023-05-09T12:33:37.612Z,73.24
2023-05-09T12:36:07.789Z,73.95
2023-05-09T12:38:34.806Z,74.22
2023-05-09T12:41:10.639Z,74.60
2023-05-09T12:43:40.320Z,74.83
2023-05-09T12:46:08.920Z,75.46
2023-05-09T12:48:39.368Z,75.22
2023-05-09T12:51:07.511Z,75.29
2023-05-09T12:53:41.633Z,75.53
2023-05-09T12:56:17.373Z,75.92
2023-05-09T12:58:52.524Z,76.06
2023-05-09T13:01:21.570Z,77.01
2023-05-09T13:03:53.501Z,77.16
2023-05-09T13:06:21.323Z,77.37
2023-05-09T13:09:01.842Z,76.59
2023-05-09T13:11:30.036Z,76.25
2023-05-09T13:13:57.337Z,76.75
2023-05-09T13:16:24.502Z,77.04
2023-05-09T13:18:51.526Z,78.14
2023-05-09T13:21:18.524Z,78.62
2023-05-09T13:23:46.059Z,79.46
2023-05-09T13:26:13.142Z,79.74
2023-05-09T13:28:40.087Z,79.96
2023-05-09T13:31:08.211Z,79.57
2023-05-09T13:33:35.381Z,79.95
2023-05-09T13:36:02.481Z,80.65
2023-05-09T13:38:31.225Z,81.34
2023-05-09T13:40:58.600Z,81.57
2023-05-09T13:43:25.670Z,81.72
2023-05-09T13:45:52.705Z,82.74
2023-05-09T13:48:19.742Z,83.38
2023-05-09T13:50:47.101Z,83.26
2023-05-09T13:53:14.078Z,83.86
2023-05-09T13:55:40.998Z,83.68
2023-05-09T13:58:07.920Z,84.64
2023-05-09T14:00:35.211Z,84.74
2023-05-09T14:03:03.081Z,85.18
2023-05-09T14:05:33.265Z,84.43
2023-05-09T14:08:01.814Z,83.80
2023-05-09T14:10:29.227Z,84.46
2023-05-09T14:12:56.644Z,83.99
2023-05-09T14:15:23.619Z,84.33
2023-05-09T14:17:50.691Z,84.16
2023-05-09T14:20:17.994Z,84.22
2023-05-09T14:22:45.249Z,84.60
2023-05-09T14:25:12.762Z,85.21
2023-05-09T14:27:39.748Z,85.51
2023-05-09T14:30:07.371Z,85.64
2023-05-09T14:32:34.353Z,85.58
2023-05-09T14:35:01.389Z,85.16
2023-05-09T14:37:29.654Z,85.29
2023-05-09T14:39:56.666Z,85.67
2023-05-09T14:42:23.766Z,85.81
2023-05-09T14:44:50.835Z,85.84
2023-05-09T14:47:17.941Z,86.13
2023-05-09T14:49:45.568Z,85.70
2023-05-09T14:52:13.966Z,85.44
2023-05-09T14:54:41.387Z,84.64
2023-05-09T14:57:08.704Z,84.57
2023-05-09T15:06:17.954Z,85.14
2023-05-09T15:08:44.896Z,85.43
2023-05-09T15:16:17.587Z,85.89
2023-05-09T15:42:16.675Z,88.07
